Time;durP1;ratioP1;P1;durP2;ratioP2;P2;SDS_P1;SDS_P2;PMS_P1;PMS_P2;Temp;Humidity;BMP_temperature;BMP_pressure;BME280_temperature;BME280_humidity;BME280_pressure;Samples;Min_cycle;Max_cycle;Signal;HPM_P1;HPM_P2
2022/07/11 00:02:25;;;;;;;0.23;0.23;;;;;;;23.73;37.66;95058.84;5044826;28;20205;-63
2022/07/11 00:04:52;;;;;;;0.10;0.10;;;;;;;22.83;38.67;95058.03;5018864;28;20190;-62
2022/07/11 00:07:20;;;;;;;0.10;0.10;;;;;;;23.35;38.21;95073.63;5032705;28;20215;-62
2022/07/11 00:09:47;;;;;;;0.20;0.20;;;;;;;23.34;38.18;95069.38;5024836;28;20219;-64
2022/07/11 00:12:14;;;;;;;0.10;0.10;;;;;;;23.06;38.35;95072.59;5052475;28;20208;-63
2022/07/11 00:14:41;;;;;;;0.30;0.30;;;;;;;23.34;37.96;95072.06;5044126;28;20895;-63
2022/07/11 00:17:09;;;;;;;0.23;0.23;;;;;;;23.37;37.54;95063.38;5033342;28;20686;-64
2022/07/11 00:19:37;;;;;;;0.10;0.10;;;;;;;23.08;37.81;95070.38;5032996;28;20221;-63
2022/07/11 00:22:05;;;;;;;0.10;0.10;;;;;;;23.36;37.19;95049.22;5021459;28;20481;-63
2022/07/11 00:24:32;;;;;;;0.10;0.10;;;;;;;22.89;37.78;95078.13;5017444;28;20198;-62
2022/07/11 00:26:59;;;;;;;0.10;0.10;;;;;;;22.31;38.93;95072.88;5012535;28;20295;-66
2022/07/11 00:29:26;;;;;;;0.20;0.20;;;;;;;23.00;37.96;95078.50;5038737;28;20204;-64
2022/07/11 00:31:53;;;;;;;0.00;0.00;;;;;;;22.63;38.44;95079.44;5046011;28;20473;-63
2022/07/11 00:34:21;;;;;;;0.40;0.40;;;;;;;22.89;37.70;95078.13;5044366;28;20185;-63
2022/07/11 00:36:47;;;;;;;0.10;0.10;;;;;;;22.32;38.92;95087.78;5052071;28;20205;-65
2022/07/11 00:39:14;;;;;;;0.10;0.10;;;;;;;22.29;39.18;95083.09;5041840;28;20487;-63
2022/07/11 00:41:41;;;;;;;0.30;0.30;;;;;;;22.02;39.67;95091.59;5020401;28;20212;-62
2022/07/11 00:44:08;;;;;;;0.10;0.10;;;;;;;22.54;38.82;95087.47;5042952;28;20970;-63
2022/07/11 00:46:35;;;;;;;0.20;0.20;;;;;;;22.66;38.35;95089.47;5019050;28;20829;-63
2022/07/11 00:49:02;;;;;;;0.17;0.17;;;;;;;22.96;37.80;95081.03;5052388;28;20446;-62
2022/07/11 00:51:30;;;;;;;0.30;0.30;;;;;;;22.65;38.15;95093.25;5025803;28;20428;-63
2022/07/11 00:53:58;;;;;;;0.40;0.30;;;;;;;22.72;38.23;95091.63;5031472;28;20232;-63
2022/07/11 00:56:27;;;;;;;0.23;0.23;;;;;;;22.10;39.49;95096.09;5018411;28;20212;-63
2022/07/11 00:58:54;;;;;;;0.47;0.47;;;;;;;22.29;38.87;95091.13;5044384;28;20217;-62
2022/07/11 01:01:22;;;;;;;0.10;0.10;;;;;;;22.18;39.59;95087.25;5045218;28;20481;-65
2022/07/11 01:03:49;;;;;;;0.27;0.27;;;;;;;22.51;38.87;95088.13;5018036;28;20189;-64
2022/07/11 01:06:16;;;;;;;0.10;0.10;;;;;;;22.08;39.97;95100.94;5043852;28;20450;-64
2022/07/11 01:08:44;;;;;;;0.10;0.10;;;;;;;21.96;40.08;95099.00;5015485;28;20205;-64
2022/07/11 01:11:15;;;;;;;0.10;0.10;;;;;;;22.57;38.96;95089.53;5039872;28;20514;-64
2022/07/11 01:13:43;;;;;;;0.10;0.10;;;;;;;22.58;38.64;95087.63;5031718;28;20201;-63
2022/07/11 01:16:22;;;;;;;0.27;0.27;;;;;;;22.99;38.43;95084.97;5046398;28;20677;-63
2022/07/11 01:18:54;;;;;;;0.17;0.17;;;;;;;22.76;38.69;95089.84;5032409;28;20470;-63
2022/07/11 01:21:38;;;;;;;1.73;0.50;;;;;;;22.79;38.85;95089.19;5045403;28;20448;-63
2022/07/11 01:24:06;;;;;;;0.10;0.10;;;;;;;23.04;38.06;95084.75;5035350;28;20645;-64
2022/07/11 01:26:34;;;;;;;0.30;0.30;;;;;;;23.30;37.87;95088.00;5051152;28;21055;-64
2022/07/11 01:29:09;;;;;;;0.10;0.10;;;;;;;23.03;38.10;95083.97;5051008;28;21035;-65
2022/07/11 01:31:41;;;;;;;0.20;0.20;;;;;;;23.38;37.41;95083.63;5044529;28;20452;-63
2022/07/11 01:34:08;;;;;;;0.20;0.20;;;;;;;23.09;37.67;95087.22;5032091;28;20495;-64
2022/07/11 01:36:35;;;;;;;0.10;0.10;;;;;;;23.33;37.28;95081.19;5022994;28;20256;-63
2022/07/11 01:39:03;;;;;;;0.20;0.20;;;;;;;23.26;37.58;95075.56;5033824;28;20670;-65
2022/07/11 01:41:30;;;;;;;0.10;0.10;;;;;;;23.01;38.11;95080.81;5040968;28;20667;-64
2022/07/11 01:43:57;;;;;;;0.20;0.20;;;;;;;23.03;38.22;95081.28;5036456;28;20193;-63
2022/07/11 01:46:23;;;;;;;0.10;0.10;;;;;;;22.88;38.63;95081.88;5024549;28;20205;-62
2022/07/11 01:48:51;;;;;;;2.47;1.33;;;;;;;23.05;38.07;95081.75;5050425;28;20550;-63
2022/07/11 01:51:18;;;;;;;0.10;0.10;;;;;;;23.01;38.26;95086.19;5039358;28;20201;-62
2022/07/11 01:53:45;;;;;;;0.10;0.10;;;;;;;22.81;38.19;95086.97;5044838;28;20510;-64
2022/07/11 01:56:12;;;;;;;0.10;0.10;;;;;;;22.74;38.74;95080.59;5017742;28;20256;-62
2022/07/11 01:58:46;;;;;;;0.20;0.20;;;;;;;22.63;39.41;95085.56;5023008;28;20493;-64
2022/07/11 02:01:14;;;;;;;0.20;0.20;;;;;;;22.84;38.78;95096.25;5026090;28;20669;-63
2022/07/11 02:03:41;;;;;;;0.20;0.20;;;;;;;22.70;38.58;95096.50;5033459;28;20212;-64
2022/07/11 02:06:08;;;;;;;1.10;0.73;;;;;;;22.87;38.06;95099.03;5050491;28;20207;-64
2022/07/11 02:08:36;;;;;;;0.40;0.40;;;;;;;22.94;38.07;95099.28;5030020;28;20507;-64
2022/07/11 02:11:03;;;;;;;1.30;0.47;;;;;;;22.98;37.85;95094.84;5043401;28;20200;-62
2022/07/11 02:13:30;;;;;;;0.10;0.10;;;;;;;22.55;38.63;95101.63;5050404;28;20439;-62
2022/07/11 02:15:57;;;;;;;0.10;0.10;;;;;;;22.33;39.07;95102.72;5049064;28;20451;-62
2022/07/11 02:18:24;;;;;;;0.30;0.30;;;;;;;22.20;39.32;95102.94;5024051;28;20520;-64
2022/07/11 02:20:51;;;;;;;0.27;0.27;;;;;;;22.32;38.74;95103.81;5050438;28;20443;-64
2022/07/11 02:23:19;;;;;;;0.20;0.20;;;;;;;22.44;38.93;95109.25;5022171;28;21087;-65
2022/07/11 02:25:47;;;;;;;0.10;0.10;;;;;;;21.95;39.77;95113.41;5049651;28;20485;-64
2022/07/11 02:28:14;;;;;;;0.30;0.30;;;;;;;21.44;40.50;95112.81;5050064;28;20258;-65
2022/07/11 02:30:43;;;;;;;0.20;0.20;;;;;;;21.41;40.64;95116.09;5050060;28;20212;-62
2022/07/11 02:33:15;;;;;;;0.10;0.10;;;;;;;21.75;40.04;95118.69;5023001;28;20449;-63
2022/07/11 02:35:46;;;;;;;0.40;0.40;;;;;;;21.79;40.13;95114.28;5041531;28;20474;-63
2022/07/11 02:38:14;;;;;;;0.10;0.10;;;;;;;21.95;39.47;95118.75;5018026;28;20838;-65
2022/07/11 02:40:42;;;;;;;0.20;0.20;;;;;;;21.85;39.50;95116.47;5041257;28;20857;-65
2022/07/11 02:43:09;;;;;;;0.23;0.23;;;;;;;21.90;39.43;95120.81;5043601;28;20192;-62
2022/07/11 02:45:36;;;;;;;0.60;0.60;;;;;;;22.09;39.68;95134.56;5023222;28;20448;-63
2022/07/11 02:48:03;;;;;;;0.17;0.17;;;;;;;21.54;40.63;95131.13;5010217;28;20445;-63
2022/07/11 02:50:31;;;;;;;0.10;0.10;;;;;;;21.68;40.20;95129.03;5010063;28;20444;-62
2022/07/11 02:52:57;;;;;;;0.30;0.30;;;;;;;21.98;39.75;95134.16;5032535;28;20453;-63
2022/07/11 02:55:24;;;;;;;0.33;0.33;;;;;;;21.49;39.96;95117.97;5014638;28;20440;-63
2022/07/11 02:57:51;;;;;;;0.20;0.20;;;;;;;22.13;39.37;95122.91;5035537;28;20502;-63
2022/07/11 03:00:18;;;;;;;0.10;0.10;;;;;;;21.68;40.39;95123.69;5035389;28;20528;-63
2022/07/11 03:02:45;;;;;;;0.10;0.10;;;;;;;21.91;39.76;95133.06;5049322;28;20996;-64
2022/07/11 03:05:13;;;;;;;0.10;0.10;;;;;;;21.27;41.12;95137.63;5015083;28;20429;-63
2022/07/11 03:07:40;;;;;;;2.23;1.10;;;;;;;21.52;40.79;95141.31;5023595;28;20534;-62
2022/07/11 03:10:07;;;;;;;0.17;0.17;;;;;;;21.00;41.71;95135.31;5026790;28;20466;-63
2022/07/11 03:12:34;;;;;;;0.10;0.10;;;;;;;20.63;42.53;95144.66;5048057;28;20447;-64
2022/07/11 03:15:01;;;;;;;0.17;0.17;;;;;;;20.74;42.38;95153.13;5016719;28;20850;-65
2022/07/11 03:17:27;;;;;;;0.20;0.20;;;;;;;21.05;41.66;95149.25;5042705;28;20505;-63
2022/07/11 03:19:54;;;;;;;0.20;0.20;;;;;;;21.09;41.67;95150.16;5048950;28;21020;-65
2022/07/11 03:22:23;;;;;;;0.13;0.13;;;;;;;21.71;40.54;95144.41;5026541;28;20445;-64
2022/07/11 03:24:50;;;;;;;0.20;0.20;;;;;;;21.76;40.43;95152.25;5037519;28;20441;-63
2022/07/11 03:27:17;;;;;;;0.17;0.17;;;;;;;21.42;40.87;95152.34;5029263;28;20471;-65
2022/07/11 03:29:44;;;;;;;0.20;0.20;;;;;;;21.79;40.37;95162.28;5019377;28;20499;-63
2022/07/11 03:32:11;;;;;;;0.00;0.00;;;;;;;22.20;39.04;95161.66;5037736;28;20431;-63
2022/07/11 03:34:38;;;;;;;0.17;0.17;;;;;;;21.93;39.70;95158.31;5048400;28;20443;-64
2022/07/11 03:37:05;;;;;;;0.10;0.10;;;;;;;22.12;39.53;95158.72;5022667;28;20449;-62
2022/07/11 03:39:32;;;;;;;0.20;0.20;;;;;;;22.11;39.55;95153.72;5034595;28;20494;-63
2022/07/11 03:41:59;;;;;;;0.30;0.30;;;;;;;22.15;39.42;95155.41;5021337;28;20447;-62
2022/07/11 03:44:26;;;;;;;0.43;0.43;;;;;;;22.35;39.00;95164.59;5049269;28;20497;-63
2022/07/11 03:46:52;;;;;;;0.40;0.40;;;;;;;22.12;41.32;95160.59;5049251;28;20439;-62
2022/07/11 03:49:19;;;;;;;0.13;0.13;;;;;;;22.52;40.56;95150.31;5048922;28;20450;-64
2022/07/11 03:51:46;;;;;;;0.07;0.07;;;;;;;22.33;39.18;95161.44;5018099;28;20444;-63
2022/07/11 03:54:13;;;;;;;0.30;0.30;;;;;;;22.01;39.89;95164.72;5024747;28;20804;-64
2022/07/11 03:56:41;;;;;;;0.23;0.23;;;;;;;22.00;39.76;95163.97;5015415;28;20444;-64
2022/07/11 03:59:09;;;;;;;0.53;0.53;;;;;;;22.42;38.82;95172.88;5030738;28;20996;-63
2022/07/11 04:01:36;;;;;;;0.17;0.17;;;;;;;21.91;40.27;95178.44;5016974;28;20441;-62
2022/07/11 04:04:03;;;;;;;0.10;0.10;;;;;;;21.83;39.98;95180.03;5038952;28;20445;-63
2022/07/11 04:06:30;;;;;;;1.07;0.70;;;;;;;21.41;40.85;95188.06;5037822;28;20504;-63
2022/07/11 04:08:56;;;;;;;0.20;0.20;;;;;;;21.39;40.87;95187.59;5019282;28;20858;-63
2022/07/11 04:11:23;;;;;;;0.10;0.10;;;;;;;21.64;40.68;95192.13;5036292;28;20506;-62
2022/07/11 04:13:50;;;;;;;1.27;0.83;;;;;;;22.05;39.92;95197.69;5020225;28;20562;-63
2022/07/11 04:16:17;;;;;;;1.00;0.43;;;;;;;22.02;40.57;95198.34;5015256;28;20439;-62
2022/07/11 04:18:44;;;;;;;0.20;0.20;;;;;;;21.64;41.02;95192.13;5027934;28;20436;-63
2022/07/11 04:21:11;;;;;;;0.53;0.53;;;;;;;22.21;40.11;95201.38;5014055;28;20445;-63
2022/07/11 04:23:38;;;;;;;0.10;0.10;;;;;;;22.08;40.63;95207.72;5029220;28;20502;-63
2022/07/11 04:26:05;;;;;;;0.10;0.10;;;;;;;21.89;41.17;95204.66;5013696;28;20512;-64
2022/07/11 04:28:32;;;;;;;0.20;0.20;;;;;;;21.11;42.72;95211.91;5015442;28;20505;-65
2022/07/11 04:30:59;;;;;;;0.20;0.20;;;;;;;21.17;42.38;95210.69;5018369;28;20473;-61
2022/07/11 04:33:26;;;;;;;0.10;0.10;;;;;;;21.69;41.70;95205.28;5040834;28;21324;-65
2022/07/11 04:35:54;;;;;;;0.10;0.10;;;;;;;21.44;41.97;95198.13;5012640;28;20823;-63
2022/07/11 04:38:23;;;;;;;0.10;0.10;;;;;;;21.66;41.84;95198.69;5026768;28;20441;-63
2022/07/11 04:40:50;;;;;;;0.60;0.60;;;;;;;21.94;41.78;95204.47;5031649;28;20224;-63
2022/07/11 04:43:17;;;;;;;2.60;1.60;;;;;;;22.25;41.42;95204.19;5025646;28;20437;-69
2022/07/11 04:45:44;;;;;;;1.90;1.17;;;;;;;21.65;41.61;95212.34;5010885;28;20770;-62
2022/07/11 04:48:11;;;;;;;0.87;0.87;;;;;;;21.29;42.52;95214.59;5023889;28;20940;-62
2022/07/11 04:50:38;;;;;;;0.60;0.40;;;;;;;21.36;42.71;95201.56;5024544;28;20452;-63
2022/07/11 04:53:05;;;;;;;7.47;4.40;;;;;;;21.83;41.34;95204.03;5029143;28;20271;-62
2022/07/11 04:55:31;;;;;;;2.60;2.40;;;;;;;21.91;41.50;95197.91;5022779;28;20248;-63
2022/07/11 04:57:58;;;;;;;0.10;0.10;;;;;;;22.13;41.44;95210.22;5011405;28;20678;-60
2022/07/11 05:00:25;;;;;;;0.40;0.40;;;;;;;22.10;41.24;95200.16;5036022;28;20493;-64
2022/07/11 05:02:52;;;;;;;0.10;0.10;;;;;;;22.19;41.85;95197.47;5038619;28;20197;-65
2022/07/11 05:05:21;;;;;;;0.10;0.10;;;;;;;22.52;40.44;95203.75;5048782;28;20431;-64
2022/07/11 05:07:48;;;;;;;1.60;1.10;;;;;;;21.72;42.11;95209.97;5028482;28;20441;-63
2022/07/11 05:10:15;;;;;;;0.20;0.20;;;;;;;21.52;42.75;95213.31;5018330;28;20503;-60
2022/07/11 05:12:42;;;;;;;0.10;0.10;;;;;;;21.55;41.98;95226.78;5020562;28;20233;-65
2022/07/11 05:15:10;;;;;;;0.10;0.10;;;;;;;21.54;41.79;95224.44;5022803;28;20277;-63
2022/07/11 05:17:38;;;;;;;0.20;0.20;;;;;;;21.10;42.97;95221.03;5015440;28;20205;-64
2022/07/11 05:20:12;;;;;;;0.40;0.40;;;;;;;21.70;42.30;95234.31;5023099;28;20726;-66
2022/07/11 05:22:39;;;;;;;1.57;1.27;;;;;;;22.00;41.99;95227.22;5020837;28;20197;-61
2022/07/11 05:25:06;;;;;;;0.63;0.60;;;;;;;21.68;42.16;95219.72;5019016;28;20475;-62
2022/07/11 05:27:33;;;;;;;0.20;0.20;;;;;;;21.48;42.60;95231.03;5023884;28;20856;-61
2022/07/11 05:30:00;;;;;;;0.10;0.10;;;;;;;21.73;42.51;95224.91;5023387;28;21194;-66
2022/07/11 05:32:28;;;;;;;0.50;0.50;;;;;;;21.53;42.74;95225.56;5026036;28;20200;-65
2022/07/11 05:35:03;;;;;;;0.30;0.30;;;;;;;21.24;42.74;95230.75;5027813;28;20197;-62
2022/07/11 05:37:31;;;;;;;0.10;0.10;;;;;;;21.52;42.26;95222.09;5021376;28;20448;-61
2022/07/11 05:39:57;;;;;;;0.17;0.17;;;;;;;22.33;41.53;95224.75;5017801;28;20491;-63
2022/07/11 05:42:32;;;;;;;0.20;0.20;;;;;;;22.09;42.00;95228.75;5022619;28;20490;-65
2022/07/11 05:44:59;;;;;;;0.20;0.20;;;;;;;22.20;42.03;95231.88;5027009;28;20431;-61
2022/07/11 05:47:25;;;;;;;0.37;0.37;;;;;;;22.46;40.64;95224.53;5027950;28;20201;-63
2022/07/11 05:49:52;;;;;;;0.57;0.57;;;;;;;22.48;40.33;95222.31;5017666;28;20248;-64
2022/07/11 05:52:19;;;;;;;0.20;0.20;;;;;;;21.75;39.68;95225.38;5022278;28;20185;-63
2022/07/11 05:54:46;;;;;;;0.10;0.10;;;;;;;21.52;38.39;95226.66;5028070;28;20189;-64
2022/07/11 05:57:13;;;;;;;0.10;0.10;;;;;;;21.66;37.89;95205.94;5020274;28;20244;-64
2022/07/11 05:59:40;;;;;;;1.33;0.97;;;;;;;21.69;37.35;95222.09;5019774;28;20227;-62
2022/07/11 06:02:07;;;;;;;0.10;0.10;;;;;;;21.95;36.72;95224.72;5017113;28;20201;-62
2022/07/11 06:04:34;;;;;;;0.30;0.30;;;;;;;21.37;36.83;95227.16;5017164;28;20452;-65
2022/07/11 06:07:01;;;;;;;0.10;0.10;;;;;;;21.47;36.48;95218.81;5024550;28;20440;-63
2022/07/11 06:09:28;;;;;;;0.30;0.30;;;;;;;21.50;35.85;95223.50;5024244;28;20454;-61
2022/07/11 06:11:55;;;;;;;0.20;0.20;;;;;;;21.76;35.16;95211.72;5021225;28;20887;-60
2022/07/11 06:14:24;;;;;;;0.20;0.20;;;;;;;22.20;34.38;95226.53;5023874;28;20236;-65
2022/07/11 06:16:51;;;;;;;0.10;0.10;;;;;;;21.83;33.47;95228.03;5016526;28;20433;-64
2022/07/11 06:19:18;;;;;;;1.23;0.57;;;;;;;22.61;34.25;95218.66;5009873;28;20221;-64
2022/07/11 06:21:45;;;;;;;0.13;0.13;;;;;;;22.19;34.28;95224.94;5028446;28;20557;-64
2022/07/11 06:24:12;;;;;;;0.10;0.10;;;;;;;22.61;33.44;95226.66;5048982;28;20246;-64
2022/07/11 06:26:39;;;;;;;0.10;0.10;;;;;;;22.85;32.95;95210.03;5031995;28;20225;-65
2022/07/11 06:29:06;;;;;;;0.20;0.20;;;;;;;22.92;32.74;95227.09;5024308;28;20192;-62
2022/07/11 06:31:33;;;;;;;0.10;0.10;;;;;;;22.74;34.06;95225.66;5048995;28;20257;-63
2022/07/11 06:34:00;;;;;;;0.37;0.37;;;;;;;22.52;33.35;95223.22;5015087;28;20192;-64
2022/07/11 06:36:27;;;;;;;0.10;0.10;;;;;;;22.60;31.37;95218.97;5028801;28;20307;-65
2022/07/11 06:38:54;;;;;;;0.00;0.00;;;;;;;22.82;32.19;95222.16;5025190;28;20609;-62
2022/07/11 06:41:21;;;;;;;0.47;0.47;;;;;;;22.68;31.35;95226.94;5009284;28;20313;-64
2022/07/11 06:43:48;;;;;;;0.20;0.20;;;;;;;23.46;31.46;95222.66;5025760;28;20215;-64
2022/07/11 06:46:15;;;;;;;0.20;0.20;;;;;;;23.33;30.81;95220.22;5029163;28;20279;-65
2022/07/11 06:48:42;;;;;;;0.20;0.20;;;;;;;23.12;31.16;95215.66;5028037;28;20263;-63
2022/07/11 06:51:09;;;;;;;0.30;0.30;;;;;;;22.87;31.03;95219.28;5016350;28;20193;-62
2022/07/11 06:53:36;;;;;;;0.20;0.20;;;;;;;23.07;30.76;95218.53;5041935;28;20262;-64
2022/07/11 06:56:03;;;;;;;0.27;0.27;;;;;;;23.19;31.21;95217.03;5010068;28;20730;-63
2022/07/11 06:58:33;;;;;;;0.40;0.40;;;;;;;22.89;30.71;95222.41;5026866;28;20753;-65
2022/07/11 07:01:02;;;;;;;0.37;0.37;;;;;;;23.19;31.70;95230.38;5028478;28;20319;-63
2022/07/11 07:03:30;;;;;;;0.10;0.10;;;;;;;23.17;29.64;95221.91;5031944;28;20185;-65
2022/07/11 07:05:57;;;;;;;0.40;0.40;;;;;;;22.89;30.75;95222.41;5030069;28;20204;-62
2022/07/11 07:08:29;;;;;;;0.10;0.10;;;;;;;23.30;30.09;95221.69;5016163;28;20193;-63
2022/07/11 07:10:57;;;;;;;0.10;0.10;;;;;;;23.95;31.40;95220.91;5039777;28;20232;-65
2022/07/11 07:13:30;;;;;;;0.10;0.10;;;;;;;23.15;30.25;95224.91;5040401;28;20189;-64
2022/07/11 07:15:57;;;;;;;0.10;0.10;;;;;;;23.22;29.88;95230.53;5014254;28;20256;-64
2022/07/11 07:18:25;;;;;;;0.10;0.10;;;;;;;23.25;31.02;95231.78;5016040;28;20197;-64
2022/07/11 07:20:52;;;;;;;0.63;0.60;;;;;;;23.23;31.43;95231.31;5041510;28;20216;-64
2022/07/11 07:23:20;;;;;;;0.67;0.67;;;;;;;23.53;30.58;95230.91;5028983;28;20274;-65
2022/07/11 07:25:47;;;;;;;0.10;0.10;;;;;;;22.97;30.66;95218.88;5016892;28;20234;-62
2022/07/11 07:28:14;;;;;;;0.10;0.10;;;;;;;22.98;30.95;95220.47;5040503;28;20196;-65
2022/07/11 07:30:41;;;;;;;0.10;0.10;;;;;;;23.04;30.84;95229.88;5038148;28;20718;-62
2022/07/11 07:33:11;;;;;;;0.10;0.10;;;;;;;23.44;30.43;95221.41;5029592;28;20189;-63
2022/07/11 07:35:38;;;;;;;0.10;0.10;;;;;;;23.41;30.70;95225.50;5008667;28;20664;-63
2022/07/11 07:38:05;;;;;;;0.10;0.10;;;;;;;23.66;31.12;95224.50;5009317;28;20230;-64
2022/07/11 07:40:31;;;;;;;0.50;0.50;;;;;;;23.17;30.69;95229.94;5028038;28;20358;-61
2022/07/11 07:42:59;;;;;;;0.20;0.20;;;;;;;23.45;30.37;95225.66;5041334;28;20839;-63
2022/07/11 07:45:25;;;;;;;0.13;0.13;;;;;;;23.40;29.99;95215.13;5028007;28;20204;-63
2022/07/11 07:47:52;;;;;;;0.20;0.20;;;;;;;23.46;30.75;95225.31;5017320;28;20210;-64
2022/07/11 07:50:19;;;;;;;0.10;0.10;;;;;;;23.77;30.02;95219.53;5043350;28;20669;-63
2022/07/11 07:52:46;;;;;;;0.10;0.10;;;;;;;23.66;30.12;95229.06;5038259;28;20255;-64
2022/07/11 07:55:13;;;;;;;0.40;0.40;;;;;;;23.39;31.08;95227.75;5023400;28;20676;-66
2022/07/11 07:57:39;;;;;;;0.30;0.30;;;;;;;23.26;31.52;95214.59;5030324;28;20208;-63
2022/07/11 08:02:53;;;;;;;0.10;0.10;;;;;;;23.37;30.62;95215.81;5015928;28;20623;-64
2022/07/11 08:05:20;;;;;;;0.53;0.53;;;;;;;23.35;32.24;95218.00;5009027;28;20229;-65
2022/07/11 08:07:47;;;;;;;0.10;0.10;;;;;;;23.43;31.27;95225.19;5030373;28;20304;-63
2022/07/11 08:10:16;;;;;;;0.30;0.30;;;;;;;23.29;30.46;95219.28;5021644;28;20664;-61
2022/07/11 08:12:44;;;;;;;0.20;0.20;;;;;;;23.45;29.95;95225.66;5031269;28;20207;-60
2022/07/11 08:15:12;;;;;;;0.17;0.17;;;;;;;23.49;31.38;95223.88;5031764;28;20250;-63
2022/07/11 08:17:39;;;;;;;0.20;0.20;;;;;;;23.64;30.75;95228.63;5046458;28;20626;-65
2022/07/11 08:20:06;;;;;;;0.10;0.10;;;;;;;23.51;30.02;95219.75;5044861;28;20225;-62
2022/07/11 08:22:33;;;;;;;0.27;0.27;;;;;;;23.86;31.11;95223.69;5031816;28;20209;-64
2022/07/11 08:25:00;;;;;;;0.20;0.20;;;;;;;23.68;29.71;95226.84;5017619;28;20201;-61
2022/07/11 08:27:27;;;;;;;0.10;0.10;;;;;;;23.89;30.15;95216.88;5042533;28;20236;-64
2022/07/11 08:30:07;;;;;;;0.23;0.23;;;;;;;23.26;29.72;95219.94;5041620;28;20212;-61
2022/07/11 08:32:39;;;;;;;0.10;0.10;;;;;;;24.02;29.94;95229.19;5023157;28;20189;-64
2022/07/11 08:35:07;;;;;;;0.10;0.10;;;;;;;23.93;29.06;95223.13;5045428;28;20196;-65
2022/07/11 08:37:36;;;;;;;0.23;0.23;;;;;;;23.54;29.46;95221.78;5042222;28;20211;-67
2022/07/11 08:40:04;;;;;;;0.83;0.73;;;;;;;24.09;28.93;95229.44;5031418;28;20221;-66
2022/07/11 08:42:30;;;;;;;0.10;0.10;;;;;;;24.05;29.75;95225.84;5020710;28;20209;-62
2022/07/11 08:44:58;;;;;;;0.20;0.20;;;;;;;23.69;28.89;95228.41;5017048;28;20202;-60
2022/07/11 08:47:25;;;;;;;0.30;0.30;;;;;;;23.60;29.40;95222.34;5023667;28;20577;-63
2022/07/11 08:49:52;;;;;;;0.20;0.20;;;;;;;23.99;28.88;95217.25;5038926;28;20692;-67
2022/07/11 08:52:20;;;;;;;1.50;0.93;;;;;;;23.71;28.87;95228.84;5011490;28;20647;-63
2022/07/11 08:54:46;;;;;;;0.20;0.20;;;;;;;23.41;28.44;95233.53;5022121;28;20662;-64
2022/07/11 08:57:15;;;;;;;0.10;0.10;;;;;;;23.64;29.59;95220.59;5018170;28;20197;-64
2022/07/11 08:59:43;;;;;;;0.20;0.20;;;;;;;23.46;28.74;95243.25;5031090;28;20201;-64
2022/07/11 09:02:12;;;;;;;0.17;0.17;;;;;;;23.38;28.63;95222.69;5030780;28;20201;-66
2022/07/11 09:04:40;;;;;;;0.20;0.20;;;;;;;23.94;27.28;95232.75;5031093;28;20284;-64
2022/07/11 09:07:06;;;;;;;0.20;0.20;;;;;;;24.02;28.35;95237.22;5039646;28;20232;-66
2022/07/11 09:09:33;;;;;;;0.10;0.10;;;;;;;24.20;26.09;95219.84;5010871;28;20912;-65
2022/07/11 09:12:00;;;;;;;0.60;0.60;;;;;;;24.19;27.04;95231.69;5031144;28;20200;-66
2022/07/11 09:14:29;;;;;;;0.30;0.30;;;;;;;23.56;26.67;95240.16;5020486;28;20201;-65
2022/07/11 09:17:03;;;;;;;0.20;0.20;;;;;;;23.90;27.94;95229.16;5039408;28;20199;-67
2022/07/11 09:19:39;;;;;;;0.20;0.20;;;;;;;23.60;26.27;95241.06;5036167;28;20290;-61
2022/07/11 09:27:51;;;;;;;0.10;0.10;;;;;;;23.95;27.60;95242.31;5049472;28;20236;-63
2022/07/11 09:30:24;;;;;;;0.20;0.20;;;;;;;23.97;27.33;95229.38;5017103;28;20202;-62
2022/07/11 09:32:54;;;;;;;0.20;0.20;;;;;;;24.54;27.39;95243.53;5030405;28;20212;-66
2022/07/11 09:35:35;;;;;;;0.10;0.10;;;;;;;23.23;26.73;95234.75;5029092;28;20613;-64
2022/07/11 09:38:16;;;;;;;0.10;0.10;;;;;;;23.31;26.95;95233.16;5044711;28;20211;-63
2022/07/11 09:40:45;;;;;;;0.10;0.10;;;;;;;23.59;26.72;95229.63;5050342;28;20338;-65
2022/07/11 09:43:13;;;;;;;0.20;0.20;;;;;;;23.58;27.49;95243.28;5019984;28;20205;-63
2022/07/11 09:45:41;;;;;;;0.43;0.40;;;;;;;24.18;28.18;95243.50;5017577;28;20201;-65
2022/07/11 09:48:10;;;;;;;0.20;0.20;;;;;;;24.54;27.39;95254.25;5042214;28;20728;-66
2022/07/11 09:50:39;;;;;;;0.20;0.20;;;;;;;23.98;27.64;95247.00;5016201;28;20193;-65
2022/07/11 09:53:11;;;;;;;0.20;0.20;;;;;;;24.03;27.37;95244.16;5042643;28;20197;-65
2022/07/11 09:55:41;;;;;;;0.20;0.20;;;;;;;23.93;26.06;95245.34;5011333;28;20300;-65
2022/07/11 09:58:23;;;;;;;0.30;0.30;;;;;;;24.48;25.76;95255.63;5025927;28;20785;-66
2022/07/11 10:00:51;;;;;;;0.20;0.20;;;;;;;24.24;26.24;95242.19;5020849;28;20253;-67
2022/07/11 10:03:20;;;;;;;0.30;0.30;;;;;;;24.34;25.36;95255.16;5039234;28;20216;-65
2022/07/11 10:06:07;;;;;;;0.10;0.10;;;;;;;24.49;26.13;95262.53;5029664;28;20755;-63
2022/07/11 10:08:34;;;;;;;0.10;0.10;;;;;;;24.49;27.32;95241.09;5027041;28;20672;-66
2022/07/11 10:11:02;;;;;;;0.50;0.50;;;;;;;24.28;26.68;95245.75;5023550;28;20664;-62
2022/07/11 10:13:29;;;;;;;0.20;0.20;;;;;;;24.54;26.76;95251.56;5017894;28;20199;-63
2022/07/11 10:16:00;;;;;;;0.10;0.10;;;;;;;24.52;26.63;95253.03;5043523;28;20556;-65
2022/07/11 10:18:53;;;;;;;0.20;0.20;;;;;;;24.89;26.33;95244.69;5029705;28;20203;-62
2022/07/11 10:21:42;;;;;;;0.40;0.27;;;;;;;24.66;26.22;95251.59;5032581;28;20315;-66
2022/07/11 10:24:37;;;;;;;2.33;0.97;;;;;;;24.58;27.10;95259.75;5036362;28;20602;-66
2022/07/11 10:27:39;;;;;;;0.20;0.20;;;;;;;24.78;25.94;95259.66;5025588;28;20617;-64
2022/07/11 10:30:07;;;;;;;0.20;0.20;;;;;;;24.97;28.11;95237.63;5043603;28;20250;-66
2022/07/11 10:32:57;;;;;;;0.20;0.20;;;;;;;25.31;25.53;95241.72;5040951;28;20265;-64
2022/07/11 10:35:28;;;;;;;0.30;0.30;;;;;;;25.18;25.58;95227.56;5016054;28;20235;-64
2022/07/11 10:37:55;;;;;;;0.10;0.10;;;;;;;25.53;26.28;95246.59;5029036;28;20749;-62
2022/07/11 10:40:57;;;;;;;0.10;0.10;;;;;;;25.62;26.68;95248.00;5043088;28;20703;-62
2022/07/11 10:43:31;;;;;;;0.13;0.13;;;;;;;26.27;27.62;95244.00;5039195;28;20200;-62
2022/07/11 10:46:02;;;;;;;0.27;0.23;;;;;;;26.42;26.90;95245.91;5028690;28;20260;-61
2022/07/11 10:48:32;;;;;;;0.10;0.10;;;;;;;26.26;26.31;95245.13;5017805;28;20241;-63
2022/07/11 10:51:05;;;;;;;0.30;0.30;;;;;;;26.73;25.13;95243.25;5049189;28;20668;-62
2022/07/11 10:53:39;;;;;;;0.20;0.20;;;;;;;25.42;25.19;95250.88;5044731;28;20591;-64
2022/07/11 10:56:31;;;;;;;0.20;0.20;;;;;;;25.66;25.70;95256.16;5009503;28;20205;-61
2022/07/11 10:59:19;;;;;;;0.37;0.37;;;;;;;25.88;26.49;95264.44;5009337;28;20237;-61
2022/07/11 11:02:11;;;;;;;0.10;0.10;;;;;;;25.59;26.13;95239.84;5039212;28;20311;-62
2022/07/11 11:04:57;;;;;;;0.30;0.30;;;;;;;25.19;27.30;95257.81;5016128;28;20225;-66
2022/07/11 11:07:36;;;;;;;0.10;0.10;;;;;;;25.16;26.26;95261.19;5016294;28;20292;-60
2022/07/11 11:10:18;;;;;;;0.10;0.10;;;;;;;25.28;26.53;95250.41;5016785;28;20193;-60
2022/07/11 11:13:09;;;;;;;0.20;0.20;;;;;;;25.75;26.27;95254.88;5042320;28;20197;-61
2022/07/11 11:15:40;;;;;;;0.10;0.10;;;;;;;26.24;25.78;95243.94;5040289;28;20867;-64
2022/07/11 11:18:22;;;;;;;0.33;0.33;;;;;;;25.67;25.32;95252.34;5048413;28;20279;-64
2022/07/11 11:20:59;;;;;;;0.17;0.17;;;;;;;26.50;26.32;95242.28;5035928;28;20220;-63
2022/07/11 11:23:29;;;;;;;0.30;0.30;;;;;;;27.23;25.77;95247.03;5014494;28;20292;-64
2022/07/11 11:26:19;;;;;;;0.20;0.20;;;;;;;27.10;25.62;95242.94;5028367;28;20307;-63
2022/07/11 11:28:55;;;;;;;0.20;0.20;;;;;;;27.63;26.08;95239.44;5016625;28;20193;-63
2022/07/11 11:31:22;;;;;;;0.33;0.33;;;;;;;26.46;25.93;95246.03;5040661;28;20754;-62
2022/07/11 11:33:49;;;;;;;0.20;0.20;;;;;;;26.64;25.05;95242.59;5023750;28;20195;-65
2022/07/11 11:36:18;;;;;;;0.20;0.20;;;;;;;26.02;25.02;95264.06;5034456;28;20209;-62
2022/07/11 11:38:48;;;;;;;0.10;0.10;;;;;;;25.39;24.74;95262.28;5034384;28;20689;-63
2022/07/11 11:41:26;;;;;;;0.10;0.10;;;;;;;26.43;25.05;95257.44;5026271;28;20585;-63
2022/07/11 11:43:56;;;;;;;18.33;0.70;;;;;;;26.39;25.07;95251.19;5025640;28;20254;-64
2022/07/11 11:46:25;;;;;;;0.30;0.30;;;;;;;25.90;25.57;95258.72;5052258;28;20226;-63
2022/07/11 11:48:55;;;;;;;0.37;0.37;;;;;;;26.50;25.25;95246.88;5018604;28;20396;-65
2022/07/11 11:51:22;;;;;;;0.30;0.30;;;;;;;26.96;24.81;95246.06;5032262;28;20213;-64
2022/07/11 11:53:57;;;;;;;0.20;0.20;;;;;;;27.38;25.17;95254.31;5046269;28;20193;-65